createdAt,value
2018-05-26T00:00:15.110Z,16.06
2018-05-26T00:01:15.078Z,16.03
2018-05-26T00:02:15.117Z,15.99
2018-05-26T00:03:15.005Z,15.95
2018-05-26T00:04:15.071Z,15.95
2018-05-26T00:05:15.007Z,15.93
2018-05-26T00:06:15.083Z,15.90
2018-05-26T00:07:15.117Z,15.87
2018-05-26T00:08:15.122Z,15.84
2018-05-26T00:09:15.130Z,15.80
2018-05-26T00:10:15.026Z,15.76
2018-05-26T00:11:15.031Z,15.73
2018-05-26T00:12:15.157Z,15.70
2018-05-26T00:13:15.069Z,15.66
2018-05-26T00:14:15.018Z,15.64
2018-05-26T00:15:15.107Z,15.62
2018-05-26T00:16:15.063Z,15.59
2018-05-26T00:17:15.054Z,15.57
2018-05-26T00:18:15.123Z,15.51
2018-05-26T00:19:15.031Z,15.47
2018-05-26T00:20:15.054Z,15.44
2018-05-26T00:21:15.031Z,15.42
2018-05-26T00:22:15.026Z,15.36
2018-05-26T00:23:15.048Z,15.32
2018-05-26T00:24:14.985Z,15.31
2018-05-26T00:25:15.034Z,15.28
2018-05-26T00:26:15.151Z,15.29
2018-05-26T00:27:15.076Z,15.35
2018-05-26T00:28:15.103Z,15.36
2018-05-26T00:29:15.029Z,15.33
2018-05-26T00:30:15.104Z,15.35
2018-05-26T00:31:15.032Z,15.32
2018-05-26T00:32:15.133Z,15.28
2018-05-26T00:33:15.027Z,15.24
2018-05-26T00:34:15.111Z,15.19
2018-05-26T00:35:15.113Z,15.13
2018-05-26T00:36:15.026Z,15.08
2018-05-26T00:37:15.102Z,15.03
2018-05-26T00:38:15.046Z,15.00
2018-05-26T00:39:15.089Z,14.96
2018-05-26T00:40:15.135Z,14.94
2018-05-26T00:41:15.073Z,14.92
2018-05-26T00:42:15.107Z,14.87
2018-05-26T00:43:15.127Z,14.84
2018-05-26T00:44:15.146Z,14.80
2018-05-26T00:45:15.107Z,14.76
2018-05-26T00:46:15.034Z,14.73
2018-05-26T00:47:15.133Z,14.72
2018-05-26T00:48:15.147Z,14.69
2018-05-26T00:49:15.083Z,14.65
2018-05-26T00:50:15.073Z,14.60
2018-05-26T00:51:15.144Z,14.57
2018-05-26T00:52:15.058Z,14.54
2018-05-26T00:53:15.082Z,14.54
2018-05-26T00:54:15.093Z,14.51
2018-05-26T00:55:15.157Z,14.49
2018-05-26T00:56:15.141Z,14.49
2018-05-26T00:57:15.121Z,14.46
2018-05-26T00:58:15.025Z,14.43
2018-05-26T00:59:15.142Z,14.43
2018-05-26T01:00:15.140Z,14.40
2018-05-26T01:01:15.087Z,14.33
2018-05-26T01:02:15.125Z,14.29
2018-05-26T01:03:15.093Z,14.25
2018-05-26T01:04:15.124Z,14.18
2018-05-26T01:05:15.285Z,14.13
2018-05-26T01:06:15.128Z,14.10
2018-05-26T01:07:15.058Z,14.06
2018-05-26T01:08:15.062Z,14.02
2018-05-26T01:09:15.016Z,13.98
2018-05-26T01:10:15.131Z,13.95
2018-05-26T01:11:15.059Z,13.95
2018-05-26T01:12:15.053Z,13.93
2018-05-26T01:13:15.122Z,13.91
2018-05-26T01:14:15.082Z,13.88
2018-05-26T01:15:15.055Z,13.84
2018-05-26T01:16:15.124Z,13.84
2018-05-26T01:17:15.056Z,13.84
2018-05-26T01:18:15.126Z,13.83
2018-05-26T01:19:15.055Z,13.77
2018-05-26T01:20:15.126Z,13.77
2018-05-26T01:21:15.056Z,13.80
2018-05-26T01:22:15.132Z,13.83
2018-05-26T01:23:15.117Z,13.79
2018-05-26T01:24:15.137Z,13.75
2018-05-26T01:25:15.135Z,13.70
2018-05-26T01:26:15.037Z,13.66
2018-05-26T01:27:15.120Z,13.62
2018-05-26T01:28:15.115Z,13.56
2018-05-26T01:29:15.099Z,13.51
2018-05-26T01:30:15.141Z,13.51
2018-05-26T01:31:15.175Z,13.50
2018-05-26T01:32:15.163Z,13.46
2018-05-26T01:33:15.142Z,13.42
2018-05-26T01:34:15.103Z,13.36
2018-05-26T01:35:15.146Z,13.35
2018-05-26T01:36:15.151Z,13.36
2018-05-26T01:37:15.065Z,13.38
2018-05-26T01:38:15.050Z,13.34
2018-05-26T01:39:15.063Z,13.28
2018-05-26T01:40:15.113Z,13.24
2018-05-26T01:41:15.107Z,13.24
2018-05-26T01:42:15.145Z,13.20
2018-05-26T01:43:15.128Z,13.14
2018-05-26T01:44:15.186Z,13.10
2018-05-26T01:45:15.086Z,13.09
2018-05-26T01:46:15.146Z,13.05
2018-05-26T01:47:15.208Z,13.03
2018-05-26T01:48:15.108Z,13.02
2018-05-26T01:49:15.089Z,12.96
2018-05-26T01:50:15.172Z,12.95
2018-05-26T01:51:15.191Z,12.89
2018-05-26T01:52:15.149Z,12.92
2018-05-26T01:53:15.107Z,12.96
2018-05-26T01:54:15.072Z,12.98
2018-05-26T01:55:15.149Z,12.99
2018-05-26T01:56:15.076Z,12.99
2018-05-26T01:57:15.153Z,12.99
2018-05-26T01:58:15.151Z,12.96
2018-05-26T01:59:15.081Z,12.92
2018-05-26T02:00:15.153Z,12.87
2018-05-26T02:01:15.155Z,12.82
2018-05-26T02:02:15.136Z,12.76
2018-05-26T02:03:15.159Z,12.72
2018-05-26T02:04:15.125Z,12.65
2018-05-26T02:05:15.224Z,12.61
2018-05-26T02:06:15.180Z,12.58
2018-05-26T02:07:15.175Z,12.57
2018-05-26T02:08:15.189Z,12.55
2018-05-26T02:09:15.134Z,12.54
2018-05-26T02:10:15.199Z,12.51
2018-05-26T02:11:15.226Z,12.48
2018-05-26T02:12:15.105Z,12.47
2018-05-26T02:13:15.136Z,12.43
2018-05-26T02:14:15.227Z,12.43
2018-05-26T02:15:15.110Z,12.47
2018-05-26T02:16:15.093Z,12.51
2018-05-26T02:17:15.152Z,12.50
2018-05-26T02:18:15.205Z,12.46
2018-05-26T02:19:15.144Z,12.43
2018-05-26T02:20:15.196Z,12.48
2018-05-26T02:21:15.188Z,12.47
2018-05-26T02:22:15.180Z,12.46
2018-05-26T02:23:15.201Z,12.44
2018-05-26T02:24:15.113Z,12.42
2018-05-26T02:25:15.116Z,12.40
2018-05-26T02:26:15.083Z,12.39
2018-05-26T02:27:15.187Z,12.35
2018-05-26T02:28:15.154Z,12.35
2018-05-26T02:29:15.138Z,12.32
2018-05-26T02:30:15.252Z,12.29
2018-05-26T02:31:15.212Z,12.25
2018-05-26T02:32:15.159Z,12.25
2018-05-26T02:33:15.119Z,12.25
2018-05-26T02:34:15.141Z,12.21
2018-05-26T02:35:15.156Z,12.18
2018-05-26T02:36:15.200Z,12.16
2018-05-26T02:37:15.184Z,12.14
2018-05-26T02:38:15.161Z,12.14
2018-05-26T02:39:15.151Z,12.16
2018-05-26T02:40:15.104Z,12.13
2018-05-26T02:41:15.122Z,12.09
2018-05-26T02:42:15.228Z,12.06
2018-05-26T02:43:15.189Z,12.05
2018-05-26T02:44:15.246Z,12.03
2018-05-26T02:45:15.187Z,12.01
2018-05-26T02:46:15.192Z,12.02
2018-05-26T02:47:15.191Z,12.02
2018-05-26T02:48:15.214Z,12.01
2018-05-26T02:49:15.249Z,11.99
2018-05-26T02:50:15.224Z,11.95
2018-05-26T02:51:15.109Z,11.94
2018-05-26T02:52:15.155Z,11.94
2018-05-26T02:53:15.147Z,11.95
2018-05-26T02:54:15.169Z,11.91
2018-05-26T02:55:15.133Z,11.89
2018-05-26T02:56:15.124Z,11.89
2018-05-26T02:57:15.218Z,11.92
2018-05-26T02:58:15.257Z,12.01
2018-05-26T02:59:15.203Z,12.03
2018-05-26T03:00:15.129Z,11.99
2018-05-26T03:01:15.206Z,11.98
2018-05-26T03:02:15.131Z,11.94
2018-05-26T03:03:15.205Z,11.95
2018-05-26T03:04:15.134Z,11.92
2018-05-26T03:05:15.093Z,11.89
2018-05-26T03:06:15.205Z,11.89
2018-05-26T03:07:15.161Z,11.87
2018-05-26T03:08:15.135Z,11.83
2018-05-26T03:09:15.211Z,11.80
2018-05-26T03:10:15.204Z,11.76
2018-05-26T03:11:15.097Z,11.75
2018-05-26T03:12:15.250Z,11.72
2018-05-26T03:13:15.194Z,11.68
2018-05-26T03:14:15.266Z,11.69
2018-05-26T03:15:15.174Z,11.67
2018-05-26T03:16:15.247Z,11.62
2018-05-26T03:17:15.148Z,11.61
2018-05-26T03:18:15.199Z,11.65
2018-05-26T03:19:15.247Z,11.67
2018-05-26T03:20:15.182Z,11.64
2018-05-26T03:21:15.185Z,11.65
2018-05-26T03:22:15.209Z,11.62
2018-05-26T03:23:15.187Z,11.60
2018-05-26T03:24:15.244Z,11.56
2018-05-26T03:25:15.179Z,11.51
2018-05-26T03:26:15.157Z,11.50
2018-05-26T03:27:15.170Z,11.51
2018-05-26T03:28:15.215Z,11.49
2018-05-26T03:29:15.136Z,11.43
2018-05-26T03:30:15.221Z,11.36
2018-05-26T03:31:15.193Z,11.31
2018-05-26T03:32:15.240Z,11.29
2018-05-26T03:33:15.135Z,11.28
2018-05-26T03:34:15.234Z,11.25
2018-05-26T03:35:15.138Z,11.28
2018-05-26T03:36:15.238Z,11.24
2018-05-26T03:37:15.144Z,11.21
2018-05-26T03:38:15.192Z,11.18
2018-05-26T03:39:15.194Z,11.21
2018-05-26T03:40:15.221Z,11.25
2018-05-26T03:41:15.241Z,11.31
2018-05-26T03:42:15.236Z,11.32
2018-05-26T03:43:15.162Z,11.38
2018-05-26T03:44:15.128Z,11.35
2018-05-26T03:45:15.189Z,11.33
2018-05-26T03:46:15.259Z,11.33
2018-05-26T03:47:15.244Z,11.32
2018-05-26T03:48:15.151Z,11.35
2018-05-26T03:49:15.145Z,11.29
2018-05-26T03:50:15.259Z,11.28
2018-05-26T03:51:15.200Z,11.25
2018-05-26T03:52:15.228Z,11.24
2018-05-26T03:53:15.159Z,11.25
2018-05-26T03:54:15.226Z,11.22
2018-05-26T03:55:15.231Z,11.21
2018-05-26T03:56:15.231Z,11.20
2018-05-26T03:57:15.234Z,11.22
2018-05-26T03:58:15.234Z,11.24
2018-05-26T03:59:15.244Z,11.27
2018-05-26T04:00:15.193Z,11.28
2018-05-26T04:01:15.237Z,11.29
2018-05-26T04:02:15.276Z,11.32
2018-05-26T04:03:15.174Z,11.33
2018-05-26T04:04:15.147Z,11.38
2018-05-26T04:05:15.277Z,11.42
2018-05-26T04:06:15.263Z,11.49
2018-05-26T04:07:15.268Z,11.50
2018-05-26T04:08:15.149Z,11.60
2018-05-26T04:09:15.211Z,11.64
2018-05-26T04:10:15.239Z,11.65
2018-05-26T04:11:15.237Z,11.67
2018-05-26T04:12:15.219Z,11.68
2018-05-26T04:13:15.239Z,11.71
2018-05-26T04:14:15.216Z,11.73
2018-05-26T04:15:15.325Z,11.72
2018-05-26T04:16:15.245Z,11.76
2018-05-26T04:17:15.226Z,11.80
2018-05-26T04:18:15.189Z,11.79
2018-05-26T04:19:15.276Z,11.80
2018-05-26T04:20:15.226Z,11.82
2018-05-26T04:21:15.248Z,11.84
2018-05-26T04:22:15.181Z,11.87
2018-05-26T04:23:15.182Z,11.92
2018-05-26T04:24:15.249Z,11.94
2018-05-26T04:25:15.183Z,11.98
2018-05-26T04:26:15.210Z,11.99
2018-05-26T04:27:15.256Z,12.03
2018-05-26T04:28:15.243Z,12.09
2018-05-26T04:29:15.227Z,12.10
2018-05-26T04:30:15.257Z,12.16
2018-05-26T04:31:15.190Z,12.18
2018-05-26T04:32:15.193Z,12.24
2018-05-26T04:33:15.160Z,12.29
2018-05-26T04:34:15.263Z,12.33
2018-05-26T04:35:15.184Z,12.37
2018-05-26T04:36:15.260Z,12.43
2018-05-26T04:37:15.183Z,12.55
2018-05-26T04:38:15.280Z,12.60
2018-05-26T04:39:15.263Z,12.68
2018-05-26T04:40:15.305Z,12.75
2018-05-26T04:41:15.279Z,12.80
2018-05-26T04:42:15.269Z,12.87
2018-05-26T04:43:15.164Z,12.96
2018-05-26T04:44:15.277Z,13.00
2018-05-26T04:45:15.191Z,13.07
2018-05-26T04:46:15.226Z,13.12
2018-05-26T04:47:15.298Z,13.18
2018-05-26T04:48:15.302Z,13.23
2018-05-26T04:49:15.250Z,13.27
2018-05-26T04:50:15.223Z,13.32
2018-05-26T04:51:15.286Z,13.36
2018-05-26T04:52:15.202Z,13.39
2018-05-26T04:53:15.273Z,13.46
2018-05-26T04:54:15.201Z,13.47
2018-05-26T04:55:15.271Z,13.50
2018-05-26T04:56:15.236Z,13.54
2018-05-26T04:57:15.220Z,13.57
2018-05-26T04:58:15.205Z,13.57
2018-05-26T04:59:15.207Z,13.61
2018-05-26T05:00:15.275Z,13.64
2018-05-26T05:01:15.279Z,13.66
2018-05-26T05:02:15.259Z,13.69
2018-05-26T05:03:15.272Z,13.69
2018-05-26T05:04:15.312Z,13.70
2018-05-26T05:05:15.299Z,13.70
2018-05-26T05:06:15.297Z,13.73
2018-05-26T05:07:15.243Z,13.70
2018-05-26T05:08:15.280Z,13.70
2018-05-26T05:09:15.281Z,13.73
2018-05-26T05:10:15.217Z,13.73
2018-05-26T05:11:15.302Z,13.75
2018-05-26T05:12:15.302Z,13.76
2018-05-26T05:13:15.319Z,13.79
2018-05-26T05:14:15.366Z,13.83
2018-05-26T05:15:15.312Z,13.84
2018-05-26T05:16:15.316Z,13.89
2018-05-26T05:17:15.323Z,13.89
2018-05-26T05:18:15.255Z,13.91
2018-05-26T05:19:15.307Z,13.92
2018-05-26T05:20:15.286Z,13.95
2018-05-26T05:21:15.292Z,13.96
2018-05-26T05:22:15.221Z,13.99
2018-05-26T05:23:15.293Z,14.03
2018-05-26T05:24:15.290Z,14.07
2018-05-26T05:25:15.295Z,14.11
2018-05-26T05:26:15.302Z,14.15
2018-05-26T05:27:15.229Z,14.20
2018-05-26T05:28:15.294Z,14.21
2018-05-26T05:29:15.297Z,14.24
2018-05-26T05:30:15.297Z,14.25
2018-05-26T05:31:15.229Z,14.31
2018-05-26T05:32:15.331Z,14.33
2018-05-26T05:33:15.312Z,14.36
2018-05-26T05:34:15.322Z,14.39
2018-05-26T05:35:15.277Z,14.43
2018-05-26T05:36:15.257Z,14.49
2018-05-26T05:37:15.297Z,14.51
2018-05-26T05:38:15.300Z,14.54
2018-05-26T05:39:15.218Z,14.58
2018-05-26T05:40:15.257Z,14.64
2018-05-26T05:41:15.336Z,14.66
2018-05-26T05:42:15.316Z,14.73
2018-05-26T05:43:15.301Z,14.82
2018-05-26T05:44:15.240Z,14.94
2018-05-26T05:45:15.324Z,15.10
2018-05-26T05:46:15.225Z,15.26
2018-05-26T05:47:15.322Z,15.46
2018-05-26T05:48:15.269Z,15.69
2018-05-26T05:49:15.245Z,15.79
2018-05-26T05:50:15.211Z,15.93
2018-05-26T05:51:15.288Z,16.06
2018-05-26T05:52:15.308Z,16.21
2018-05-26T05:53:15.240Z,16.41
2018-05-26T05:54:15.243Z,16.44
2018-05-26T05:55:15.310Z,16.48
2018-05-26T05:56:15.344Z,16.59
2018-05-26T05:57:15.242Z,16.68
2018-05-26T05:58:15.244Z,16.76
2018-05-26T05:59:15.316Z,16.91
2018-05-26T06:00:15.244Z,17.02
2018-05-26T06:01:15.315Z,17.09
2018-05-26T06:02:15.313Z,17.16
2018-05-26T06:03:15.289Z,17.31
2018-05-26T06:04:15.288Z,17.43
2018-05-26T06:05:15.218Z,17.57
2018-05-26T06:06:15.318Z,17.66
2018-05-26T06:07:15.279Z,17.80
2018-05-26T06:08:15.351Z,17.92
2018-05-26T06:09:15.360Z,17.98
2018-05-26T06:10:15.216Z,18.07
2018-05-26T06:11:15.401Z,18.13
2018-05-26T06:12:15.292Z,18.24
2018-05-26T06:13:15.313Z,18.18
2018-05-26T06:14:15.314Z,18.36
2018-05-26T06:15:15.310Z,18.48
2018-05-26T06:16:15.316Z,18.62
2018-05-26T06:17:15.315Z,18.65
2018-05-26T06:18:15.203Z,18.68
2018-05-26T06:19:15.198Z,18.76
2018-05-26T06:20:15.254Z,18.91
2018-05-26T06:21:15.252Z,19.15
2018-05-26T06:22:15.323Z,19.29
2018-05-26T06:23:15.223Z,19.35
2018-05-26T06:24:15.259Z,19.35
2018-05-26T06:25:15.328Z,19.49
2018-05-26T06:26:15.332Z,19.62
2018-05-26T06:27:15.265Z,19.60
2018-05-26T06:28:15.330Z,19.62
2018-05-26T06:29:15.332Z,19.70
2018-05-26T06:30:15.271Z,19.98
2018-05-26T06:31:15.266Z,20.18
2018-05-26T06:32:15.269Z,20.27
2018-05-26T06:33:15.270Z,20.18
2018-05-26T06:34:15.239Z,20.12
2018-05-26T06:35:15.215Z,20.18
2018-05-26T06:36:15.269Z,20.28
2018-05-26T06:37:15.276Z,20.31
2018-05-26T06:38:15.297Z,20.39
2018-05-26T06:39:15.261Z,20.43
2018-05-26T06:40:15.334Z,20.61
2018-05-26T06:41:15.335Z,20.88
2018-05-26T06:42:15.268Z,21.14
2018-05-26T06:43:15.349Z,21.31
2018-05-26T06:44:15.364Z,21.53
2018-05-26T06:45:15.286Z,21.76
2018-05-26T06:46:15.302Z,21.96
2018-05-26T06:47:15.370Z,22.17
2018-05-26T06:48:15.261Z,22.09
2018-05-26T06:49:15.344Z,22.27
2018-05-26T06:50:15.269Z,22.45
2018-05-26T06:51:15.288Z,22.54
2018-05-26T06:52:15.267Z,22.70
2018-05-26T06:53:15.322Z,22.86
2018-05-26T06:54:15.382Z,22.79
2018-05-26T06:55:15.315Z,22.70
2018-05-26T06:56:15.368Z,22.41
2018-05-26T06:57:15.381Z,22.28
2018-05-26T06:58:15.355Z,22.20
2018-05-26T06:59:15.272Z,22.35
2018-05-26T07:00:15.364Z,22.25
2018-05-26T07:01:15.276Z,22.10
2018-05-26T07:02:15.256Z,21.97
2018-05-26T07:03:15.358Z,21.93
2018-05-26T07:04:15.395Z,22.16
2018-05-26T07:05:15.310Z,22.28
2018-05-26T07:06:15.332Z,22.23
2018-05-26T07:07:15.399Z,22.14
2018-05-26T07:08:15.278Z,22.38
2018-05-26T07:09:15.362Z,22.56
2018-05-26T07:10:15.280Z,22.79
2018-05-26T07:11:15.417Z,23.12
2018-05-26T07:12:15.326Z,23.37
2018-05-26T07:13:15.438Z,23.64
2018-05-26T07:14:15.298Z,23.90
2018-05-26T07:15:15.362Z,24.07
2018-05-26T07:16:15.391Z,24.29
2018-05-26T07:17:15.303Z,24.53
2018-05-26T07:18:15.383Z,24.61
2018-05-26T07:19:15.383Z,24.04
2018-05-26T07:20:15.405Z,24.09
2018-05-26T07:21:15.364Z,24.01
2018-05-26T07:22:15.400Z,23.83
2018-05-26T07:23:15.320Z,23.54
2018-05-26T07:24:15.314Z,23.44
2018-05-26T07:25:15.269Z,23.58
2018-05-26T07:26:15.346Z,23.83
2018-05-26T07:27:15.320Z,23.98
2018-05-26T07:28:15.245Z,23.78
2018-05-26T07:29:15.327Z,23.75
2018-05-26T07:30:15.295Z,23.82
2018-05-26T07:31:15.319Z,23.93
2018-05-26T07:32:15.356Z,24.18
2018-05-26T07:33:15.336Z,24.41
2018-05-26T07:34:15.344Z,24.67
2018-05-26T07:35:15.353Z,24.98
2018-05-26T07:36:15.312Z,25.00
2018-05-26T07:37:15.347Z,24.70
2018-05-26T07:38:15.340Z,24.56
2018-05-26T07:39:15.407Z,24.33
2018-05-26T07:40:15.299Z,24.33
2018-05-26T07:41:15.354Z,24.22
2018-05-26T07:42:15.403Z,24.20
2018-05-26T07:43:15.410Z,24.16
2018-05-26T07:44:15.296Z,24.42
2018-05-26T07:45:15.351Z,24.56
2018-05-26T07:46:15.394Z,24.57
2018-05-26T07:47:15.427Z,24.57
2018-05-26T07:48:15.340Z,24.75
2018-05-26T07:49:15.303Z,24.89
2018-05-26T07:50:15.426Z,25.09
2018-05-26T07:51:15.322Z,25.17
2018-05-26T07:52:15.419Z,25.17
2018-05-26T07:53:15.327Z,25.26
2018-05-26T07:54:15.316Z,25.48
2018-05-26T07:55:15.379Z,25.68
2018-05-26T07:56:15.384Z,25.53
2018-05-26T07:57:15.319Z,25.29
2018-05-26T07:58:15.353Z,25.23
2018-05-26T07:59:15.392Z,25.40
2018-05-26T08:00:15.321Z,25.59
2018-05-26T08:01:15.389Z,25.62
2018-05-26T08:02:15.353Z,25.80
2018-05-26T08:03:15.388Z,25.95
2018-05-26T08:04:15.332Z,25.99
2018-05-26T08:05:15.389Z,25.96
2018-05-26T08:06:15.327Z,26.17
2018-05-26T08:07:15.391Z,26.34
2018-05-26T08:08:15.347Z,26.30
2018-05-26T08:09:15.329Z,26.18
2018-05-26T08:10:15.397Z,26.33
2018-05-26T08:11:15.328Z,26.22
2018-05-26T08:12:15.396Z,26.00
2018-05-26T08:13:15.398Z,26.38
2018-05-26T08:14:15.397Z,26.51
2018-05-26T08:15:15.374Z,26.60
2018-05-26T08:16:15.373Z,26.30
2018-05-26T08:17:15.413Z,26.11
2018-05-26T08:18:15.419Z,26.25
2018-05-26T08:19:15.323Z,26.49
2018-05-26T08:20:15.380Z,26.66
2018-05-26T08:21:15.441Z,26.60
2018-05-26T08:22:15.426Z,26.37
2018-05-26T08:23:15.401Z,25.92
2018-05-26T08:24:15.403Z,25.96
2018-05-26T08:25:15.339Z,25.99
2018-05-26T08:26:15.404Z,25.92
2018-05-26T08:27:15.408Z,26.10
2018-05-26T08:28:15.405Z,26.13
2018-05-26T08:29:15.350Z,26.19
2018-05-26T08:30:15.411Z,26.24
2018-05-26T08:31:15.341Z,26.37
2018-05-26T08:32:15.410Z,26.52
2018-05-26T08:33:15.311Z,26.86
2018-05-26T08:34:15.402Z,27.10
2018-05-26T08:35:15.404Z,27.36
2018-05-26T08:36:15.314Z,27.51
2018-05-26T08:37:15.408Z,27.59
2018-05-26T08:38:15.359Z,27.61
2018-05-26T08:39:15.412Z,27.51
2018-05-26T08:40:15.364Z,27.48
2018-05-26T08:41:15.426Z,27.15
2018-05-26T08:42:15.409Z,27.17
2018-05-26T08:43:15.391Z,26.93
2018-05-26T08:44:15.437Z,27.04
2018-05-26T08:45:15.317Z,27.12
2018-05-26T08:46:15.445Z,27.28
2018-05-26T08:47:15.381Z,27.46
2018-05-26T08:48:15.419Z,27.63
2018-05-26T08:49:15.458Z,27.82
2018-05-26T08:50:15.458Z,27.86
2018-05-26T08:51:15.394Z,27.91
2018-05-26T08:52:15.439Z,27.88
2018-05-26T08:53:15.356Z,27.99
2018-05-26T08:54:15.357Z,28.03
2018-05-26T08:55:15.426Z,27.86
2018-05-26T08:56:15.425Z,27.78
2018-05-26T08:57:15.325Z,27.84
2018-05-26T08:58:15.428Z,27.99
2018-05-26T08:59:15.372Z,28.04
2018-05-26T09:00:15.430Z,28.07
2018-05-26T09:01:15.364Z,28.10
2018-05-26T09:02:15.425Z,28.15
2018-05-26T09:03:15.362Z,28.20
2018-05-26T09:04:15.363Z,28.18
2018-05-26T09:05:15.428Z,27.78
2018-05-26T09:06:15.368Z,27.46
2018-05-26T09:07:15.436Z,27.61
2018-05-26T09:08:15.368Z,27.74
2018-05-26T09:09:15.523Z,27.89
2018-05-26T09:10:15.435Z,27.93
2018-05-26T09:11:15.391Z,27.75
2018-05-26T09:12:15.433Z,27.68
2018-05-26T09:13:15.300Z,27.70
2018-05-26T09:14:15.330Z,27.86
2018-05-26T09:15:15.417Z,28.14
2018-05-26T09:16:15.402Z,28.31
2018-05-26T09:17:15.328Z,28.29
2018-05-26T09:18:15.328Z,28.06
2018-05-26T09:19:15.397Z,28.07
2018-05-26T09:20:15.317Z,28.24
2018-05-26T09:21:15.393Z,28.29
2018-05-26T09:22:15.377Z,28.21
2018-05-26T09:23:15.418Z,28.10
2018-05-26T09:24:15.340Z,28.20
2018-05-26T09:25:15.537Z,28.39
2018-05-26T09:26:15.446Z,28.50
2018-05-26T09:27:15.472Z,28.69
2018-05-26T09:28:15.485Z,28.83
2018-05-26T09:29:15.447Z,28.87
2018-05-26T09:30:15.484Z,28.42
2018-05-26T09:31:15.530Z,28.20
2018-05-26T09:32:15.444Z,28.02
2018-05-26T09:33:15.450Z,28.18
2018-05-26T09:34:15.390Z,28.37
2018-05-26T09:35:15.476Z,28.54
2018-05-26T09:36:15.353Z,28.53
2018-05-26T09:37:15.361Z,28.71
2018-05-26T09:38:15.411Z,28.73
2018-05-26T09:39:15.473Z,28.87
2018-05-26T09:40:15.356Z,29.01
2018-05-26T09:41:15.478Z,29.18
2018-05-26T09:42:15.425Z,29.39
2018-05-26T09:43:15.434Z,29.51
2018-05-26T09:44:15.456Z,29.69
2018-05-26T09:45:15.436Z,29.79
2018-05-26T09:46:15.454Z,29.80
2018-05-26T09:47:15.460Z,29.68
2018-05-26T09:48:15.416Z,29.68
2018-05-26T09:49:15.479Z,29.25
2018-05-26T09:50:15.477Z,29.50
2018-05-26T09:51:15.358Z,29.72
2018-05-26T09:52:15.458Z,29.95
2018-05-26T09:53:15.424Z,30.05
2018-05-26T09:54:15.362Z,30.23
2018-05-26T09:55:15.365Z,30.41
2018-05-26T09:56:15.465Z,30.48
2018-05-26T09:57:15.485Z,30.42
2018-05-26T09:58:15.444Z,30.41
2018-05-26T09:59:15.369Z,30.32
2018-05-26T10:00:15.484Z,29.99
2018-05-26T10:01:15.374Z,29.80
2018-05-26T10:02:15.494Z,29.77
2018-05-26T10:03:15.401Z,29.69
2018-05-26T10:04:15.428Z,29.50
2018-05-26T10:06:15.422Z,29.58
2018-05-26T10:07:15.455Z,29.73
2018-05-26T10:08:15.425Z,29.66
2018-05-26T10:09:15.463Z,29.79
2018-05-26T10:10:15.470Z,29.77
2018-05-26T10:11:15.378Z,29.54
2018-05-26T10:12:15.476Z,29.34
2018-05-26T10:13:15.445Z,29.16
2018-05-26T10:14:15.449Z,29.23
2018-05-26T10:15:15.441Z,29.35
2018-05-26T10:16:15.514Z,29.50
2018-05-26T10:17:15.451Z,29.66
2018-05-26T10:18:15.463Z,29.75
2018-05-26T10:19:15.382Z,29.76
2018-05-26T10:20:15.460Z,29.90
2018-05-26T10:21:15.450Z,29.95
2018-05-26T10:22:15.500Z,29.95
2018-05-26T10:23:15.429Z,30.01
2018-05-26T10:24:15.498Z,29.51
2018-05-26T10:25:15.466Z,29.57
2018-05-26T10:26:15.397Z,29.77
2018-05-26T10:27:15.515Z,30.02
2018-05-26T10:28:15.393Z,29.77
2018-05-26T10:29:15.505Z,29.76
2018-05-26T10:30:15.503Z,29.73
2018-05-26T10:31:15.462Z,29.91
2018-05-26T10:32:15.476Z,30.03
2018-05-26T10:33:15.470Z,30.13
2018-05-26T10:34:15.530Z,30.08
2018-05-26T10:35:15.516Z,30.09
2018-05-26T10:36:15.531Z,29.91
2018-05-26T10:37:15.513Z,29.73
2018-05-26T10:38:15.517Z,29.66
2018-05-26T10:39:15.520Z,29.46
2018-05-26T10:40:15.467Z,29.37
2018-05-26T10:41:15.471Z,29.41
2018-05-26T10:42:15.496Z,29.27
2018-05-26T10:43:15.431Z,29.39
2018-05-26T10:44:15.495Z,29.55
2018-05-26T10:45:15.430Z,29.50
2018-05-26T10:46:15.498Z,29.43
2018-05-26T10:47:15.500Z,29.61
2018-05-26T10:48:15.503Z,29.77
2018-05-26T10:49:15.499Z,29.87
2018-05-26T10:50:15.503Z,30.03
2018-05-26T10:51:15.499Z,29.99
2018-05-26T10:52:15.566Z,29.94
2018-05-26T10:53:15.360Z,30.08
2018-05-26T10:54:15.450Z,30.09
2018-05-26T10:55:15.489Z,30.23
2018-05-26T10:56:15.400Z,30.38
2018-05-26T10:57:15.398Z,30.30
2018-05-26T10:58:15.491Z,30.32
2018-05-26T10:59:15.435Z,30.48
2018-05-26T11:00:15.395Z,30.45
2018-05-26T11:01:15.399Z,30.53
2018-05-26T11:02:15.405Z,30.76
2018-05-26T11:03:15.528Z,30.87
2018-05-26T11:04:15.594Z,30.94
2018-05-26T11:05:15.489Z,30.86
2018-05-26T11:06:15.546Z,30.90
2018-05-26T11:07:15.534Z,31.06
2018-05-26T11:08:15.541Z,31.06
2018-05-26T11:09:15.533Z,31.06
2018-05-26T11:10:15.531Z,31.02
2018-05-26T11:11:15.484Z,31.17
2018-05-26T11:12:15.414Z,31.40
2018-05-26T11:13:15.448Z,31.22
2018-05-26T11:14:15.511Z,30.83
2018-05-26T11:15:15.452Z,30.48
2018-05-26T11:16:15.760Z,30.57
2018-05-26T11:17:15.450Z,30.58
2018-05-26T11:18:15.517Z,30.48
2018-05-26T11:19:15.452Z,30.49
2018-05-26T11:20:15.537Z,30.66
2018-05-26T11:21:15.548Z,30.53
2018-05-26T11:22:15.522Z,30.30
2018-05-26T11:23:15.504Z,30.45
2018-05-26T11:24:15.644Z,30.57
2018-05-26T11:25:15.425Z,30.83
2018-05-26T11:26:15.528Z,30.95
2018-05-26T11:27:15.491Z,30.94
2018-05-26T11:28:15.494Z,30.90
2018-05-26T11:29:15.528Z,30.84
2018-05-26T11:30:15.495Z,30.69
2018-05-26T11:31:15.545Z,30.28
2018-05-26T11:32:15.493Z,30.26
2018-05-26T11:33:15.543Z,30.39
2018-05-26T11:34:15.548Z,30.48
2018-05-26T11:35:15.494Z,30.53
2018-05-26T11:36:15.554Z,30.45
2018-05-26T11:37:15.436Z,30.37
2018-05-26T11:38:15.558Z,30.61
2018-05-26T11:39:15.553Z,30.69
2018-05-26T11:40:15.536Z,30.71
2018-05-26T11:41:15.544Z,30.75
2018-05-26T11:42:15.505Z,30.65
2018-05-26T11:43:15.531Z,30.86
2018-05-26T11:44:15.498Z,30.97
2018-05-26T11:45:15.579Z,30.95
2018-05-26T11:46:15.559Z,31.11
2018-05-26T11:47:15.497Z,30.93
2018-05-26T11:48:15.571Z,31.06
2018-05-26T11:49:15.564Z,31.13
2018-05-26T11:50:15.566Z,31.09
2018-05-26T11:51:15.575Z,31.02
2018-05-26T11:52:15.448Z,31.02
2018-05-26T11:53:15.527Z,30.97
2018-05-26T11:54:15.538Z,30.95
2018-05-26T11:55:15.532Z,31.05
2018-05-26T11:56:15.536Z,31.12
2018-05-26T11:57:15.538Z,31.22
2018-05-26T11:58:15.452Z,31.26
2018-05-26T11:59:15.537Z,30.55
2018-05-26T12:00:15.429Z,30.46
2018-05-26T12:01:15.454Z,30.55
2018-05-26T12:02:15.546Z,30.37
2018-05-26T12:03:15.576Z,30.38
2018-05-26T12:04:15.575Z,30.41
2018-05-26T12:05:15.572Z,30.58
2018-05-26T12:06:15.560Z,30.82
2018-05-26T12:07:15.520Z,30.84
2018-05-26T12:08:15.549Z,30.95
2018-05-26T12:09:15.550Z,30.69
2018-05-26T12:10:15.586Z,31.00
2018-05-26T12:11:15.450Z,31.23
2018-05-26T12:12:15.519Z,31.46
2018-05-26T12:13:15.508Z,31.64
2018-05-26T12:14:15.534Z,31.85
2018-05-26T12:15:15.554Z,31.96
2018-05-26T12:16:15.455Z,31.93
2018-05-26T12:17:15.540Z,31.98
2018-05-26T12:18:15.532Z,31.96
2018-05-26T12:19:15.537Z,31.70
2018-05-26T12:20:15.539Z,31.68
2018-05-26T12:21:15.533Z,31.73
2018-05-26T12:22:15.558Z,32.04
2018-05-26T12:23:15.584Z,32.18
2018-05-26T12:24:15.519Z,32.04
2018-05-26T12:25:15.584Z,31.97
2018-05-26T12:26:15.544Z,32.16
2018-05-26T12:27:15.569Z,32.34
2018-05-26T12:28:15.592Z,32.38
2018-05-26T12:29:15.523Z,31.75
2018-05-26T12:30:15.484Z,31.77
2018-05-26T12:31:15.548Z,31.64
2018-05-26T12:32:15.475Z,31.59
2018-05-26T12:33:15.563Z,31.55
2018-05-26T12:34:15.524Z,31.40
2018-05-26T12:35:15.533Z,31.37
2018-05-26T12:36:15.507Z,31.40
2018-05-26T12:37:15.571Z,31.31
2018-05-26T12:38:15.507Z,31.31
2018-05-26T12:39:15.506Z,31.22
2018-05-26T12:40:15.532Z,31.17
2018-05-26T12:41:15.610Z,31.27
2018-05-26T12:42:15.551Z,31.20
2018-05-26T12:43:15.468Z,31.06
2018-05-26T12:44:15.563Z,30.87
2018-05-26T12:46:15.504Z,30.65
2018-05-26T12:47:15.560Z,30.78
2018-05-26T12:48:15.480Z,30.43
2018-05-26T12:49:15.461Z,30.28
2018-05-26T12:50:15.527Z,30.45
2018-05-26T12:51:15.569Z,30.75
2018-05-26T12:52:15.609Z,30.95
2018-05-26T12:53:15.453Z,31.09
2018-05-26T12:54:15.510Z,31.17